Time;durP1;ratioP1;P1;durP2;ratioP2;P2;SDS_P1;SDS_P2;PMS_P1;PMS_P2;Temp;Humidity;BMP_temperature;BMP_pressure;BME280_temperature;BME280_humidity;BME280_pressure;Samples;Min_cycle;Max_cycle;Signal;HPM_P1;HPM_P2
2023/07/21 00:01:53;;;;;;;11.60;4.97;;;;;;;25.59;50.67;95010.47;4968868;28;20034;-83
2023/07/21 00:10:07;;;;;;;8.00;4.05;;;;;;;25.73;50.69;95027.69;4948656;28;20441;-82
2023/07/21 00:12:37;;;;;;;13.95;4.13;;;;;;;25.73;50.96;95029.63;4949379;29;20035;-82
2023/07/21 00:15:07;;;;;;;10.43;4.75;;;;;;;25.57;51.03;95001.88;4932583;29;20039;-82
2023/07/21 00:17:34;;;;;;;8.02;4.10;;;;;;;25.87;51.12;95047.97;4932991;29;20035;-82
2023/07/21 00:20:09;;;;;;;11.40;4.57;;;;;;;25.78;51.00;95042.09;4950429;29;20471;-83
2023/07/21 00:22:35;;;;;;;12.07;4.53;;;;;;;25.83;51.04;95049.91;4933046;28;20115;-83
2023/07/21 00:25:01;;;;;;;11.73;4.28;;;;;;;25.77;51.00;95035.88;4933171;29;20039;-83
2023/07/21 00:27:27;;;;;;;17.88;4.43;;;;;;;25.87;50.75;95037.91;4950434;29;20027;-82
2023/07/21 00:29:52;;;;;;;15.38;4.70;;;;;;;25.35;51.74;95007.09;4950338;28;20159;-83
2023/07/21 00:32:19;;;;;;;8.23;3.90;;;;;;;25.33;51.96;95014.81;4933424;29;20050;-83
2023/07/21 00:34:46;;;;;;;16.88;4.57;;;;;;;25.44;51.49;95014.16;4933497;29;20132;-83
2023/07/21 00:37:12;;;;;;;9.77;3.95;;;;;;;25.57;51.88;95035.25;4950712;29;20035;-83
2023/07/21 00:39:39;;;;;;;10.93;4.45;;;;;;;25.42;51.98;95011.81;4933751;28;20039;-83
2023/07/21 00:42:04;;;;;;;9.75;4.18;;;;;;;25.44;51.61;95017.66;4932824;28;20524;-83
2023/07/21 00:44:30;;;;;;;15.32;4.70;;;;;;;25.11;52.45;95028.50;4950463;29;20046;-82
2023/07/21 00:46:56;;;;;;;8.32;4.22;;;;;;;25.25;52.64;95034.13;4950875;29;20034;-83
2023/07/21 00:49:21;;;;;;;9.90;4.18;;;;;;;25.54;51.88;95059.66;4950204;29;20039;-83
2023/07/21 00:51:47;;;;;;;13.85;4.80;;;;;;;25.46;52.19;95060.72;4932940;28;20074;-83
2023/07/21 00:54:13;;;;;;;10.95;4.07;;;;;;;24.93;52.61;94993.84;4950394;29;20105;-83
2023/07/21 00:56:38;;;;;;;11.98;4.63;;;;;;;25.07;52.48;95014.13;4933274;29;20061;-83
2023/07/21 00:59:04;;;;;;;9.52;4.65;;;;;;;24.43;53.28;94950.91;4950645;29;20038;-83
2023/07/21 01:01:29;;;;;;;7.40;4.30;;;;;;;25.18;52.50;95010.38;4932845;29;20500;-83
2023/07/21 01:03:56;;;;;;;7.07;4.22;;;;;;;25.10;52.85;95030.44;4949752;29;20043;-83
2023/07/21 01:06:26;;;;;;;6.22;4.22;;;;;;;25.30;52.28;95031.09;4932581;28;20122;-83
2023/07/21 01:08:52;;;;;;;9.77;4.20;;;;;;;25.12;52.01;94973.09;4950469;29;20062;-83
2023/07/21 01:11:18;;;;;;;11.10;4.43;;;;;;;25.37;51.70;95002.09;4950483;29;20031;-83
2023/07/21 01:13:43;;;;;;;10.13;4.07;;;;;;;25.44;51.83;94989.72;4932757;28;20130;-83
2023/07/21 01:16:11;;;;;;;10.63;4.25;;;;;;;25.36;51.75;94957.09;4932290;28;20043;-82
2023/07/21 01:18:37;;;;;;;12.93;4.55;;;;;;;25.36;51.50;94954.38;4950006;29;20031;-83
2023/07/21 01:21:04;;;;;;;7.22;4.35;;;;;;;25.44;51.70;94968.00;4950197;29;20045;-83
2023/07/21 01:23:44;;;;;;;6.32;4.15;;;;;;;25.63;51.93;94995.00;4946388;28;20465;-83
2023/07/21 01:26:11;;;;;;;9.48;4.50;;;;;;;25.44;52.04;94979.66;4936076;29;20035;-82
2023/07/21 01:28:40;;;;;;;12.13;5.03;;;;;;;25.23;52.32;94955.78;4948093;29;20035;-82
2023/07/21 01:31:06;;;;;;;7.88;4.20;;;;;;;25.32;52.20;94972.56;4931772;29;20031;-82
2023/07/21 01:33:32;;;;;;;14.38;4.72;;;;;;;25.23;52.67;94971.28;4932046;29;20093;-82
2023/07/21 01:36:01;;;;;;;9.95;3.70;;;;;;;25.44;52.85;95009.50;4948642;29;20045;-82
2023/07/21 01:38:27;;;;;;;15.77;5.35;;;;;;;25.20;52.72;94983.66;4948214;29;20517;-82
2023/07/21 01:40:53;;;;;;;9.98;4.32;;;;;;;25.24;52.50;94991.84;4931336;28;20513;-81
2023/07/21 01:43:19;;;;;;;9.77;4.68;;;;;;;25.28;52.97;95017.88;4932284;28;20089;-81
2023/07/21 01:45:45;;;;;;;9.13;4.93;;;;;;;25.03;52.87;94989.66;4931632;28;20035;-81
2023/07/21 01:48:10;;;;;;;11.35;4.85;;;;;;;25.08;52.97;95013.00;4948058;29;20034;-81
2023/07/21 01:50:39;;;;;;;13.20;4.50;;;;;;;24.93;53.37;95029.09;4962982;28;20047;-80
2023/07/21 01:53:12;;;;;;;9.65;4.43;;;;;;;25.18;52.69;95045.66;4963514;28;20109;-80
2023/07/21 01:55:49;;;;;;;11.23;4.55;;;;;;;24.80;52.90;94997.09;4948671;28;20100;-80
2023/07/21 01:58:18;;;;;;;13.23;4.85;;;;;;;24.42;52.66;94974.50;4931505;29;20136;-82
2023/07/21 02:00:45;;;;;;;14.05;5.13;;;;;;;24.32;52.84;94975.16;4931994;29;20039;-82
2023/07/21 02:03:10;;;;;;;9.07;5.10;;;;;;;24.19;53.93;95017.91;4961710;28;20032;-83
2023/07/21 02:05:36;;;;;;;12.98;5.15;;;;;;;24.45;53.96;95057.03;4939705;29;20035;-83
2023/07/21 02:08:01;;;;;;;15.63;4.47;;;;;;;24.80;53.25;95064.91;4951596;29;20085;-83
2023/07/21 02:10:27;;;;;;;13.70;4.50;;;;;;;24.44;52.49;94983.06;4934503;29;20031;-83
2023/07/21 02:12:52;;;;;;;10.05;4.78;;;;;;;24.08;52.31;94926.78;4952039;29;20039;-83
2023/07/21 02:15:18;;;;;;;10.63;4.93;;;;;;;24.93;52.42;95034.53;4934491;29;20133;-83
2023/07/21 02:17:44;;;;;;;9.40;4.97;;;;;;;24.92;52.19;95032.94;4934731;29;20493;-83
2023/07/21 02:20:10;;;;;;;9.88;4.68;;;;;;;25.04;52.42;95048.19;4966515;28;20125;-83
2023/07/21 02:22:40;;;;;;;7.55;4.45;;;;;;;25.03;52.59;95052.06;4966279;28;20560;-83
2023/07/21 02:25:09;;;;;;;7.50;4.55;;;;;;;24.98;52.92;95047.75;4934254;29;20031;-83
2023/07/21 02:27:36;;;;;;;12.63;4.97;;;;;;;24.85;52.60;95023.91;4950103;28;20038;-82
2023/07/21 02:30:02;;;;;;;12.02;4.63;;;;;;;25.04;52.83;95050.13;4951734;29;20039;-83
2023/07/21 02:32:28;;;;;;;10.50;4.70;;;;;;;24.80;52.81;95008.72;4934423;28;20523;-84
2023/07/21 02:34:54;;;;;;;9.40;4.47;;;;;;;24.75;53.08;95010.97;4934291;28;20047;-83
2023/07/21 02:37:19;;;;;;;10.18;4.22;;;;;;;24.72;53.27;94998.94;4951586;28;20059;-83
2023/07/21 02:39:45;;;;;;;10.07;5.00;;;;;;;24.82;53.22;95014.56;4933857;29;20031;-83
2023/07/21 02:42:10;;;;;;;6.95;4.57;;;;;;;25.00;53.10;95039.25;4934396;28;20050;-83
2023/07/21 02:44:35;;;;;;;11.55;4.63;;;;;;;24.49;52.95;94965.69;4951577;28;20097;-83
2023/07/21 02:47:01;;;;;;;10.45;5.10;;;;;;;24.13;53.07;94911.00;4941578;28;20074;-83
2023/07/21 02:49:27;;;;;;;7.15;4.35;;;;;;;24.96;53.11;95047.31;4950730;29;20118;-83
2023/07/21 02:51:52;;;;;;;8.95;5.20;;;;;;;24.93;53.17;95048.09;4951704;29;20047;-83
2023/07/21 02:54:18;;;;;;;11.02;4.75;;;;;;;24.82;53.33;95035.47;4951489;29;20035;-83
2023/07/21 02:56:44;;;;;;;16.50;4.63;;;;;;;24.58;53.18;95006.88;4934052;29;20043;-83
2023/07/21 02:59:10;;;;;;;12.90;5.00;;;;;;;24.77;53.05;95033.09;4933556;29;20034;-83
2023/07/21 03:01:36;;;;;;;11.68;4.75;;;;;;;24.64;53.36;95021.69;4950921;28;20046;-83
2023/07/21 03:04:03;;;;;;;14.55;5.57;;;;;;;24.51;53.24;95012.19;4933999;28;20053;-83
2023/07/21 03:06:30;;;;;;;9.73;4.53;;;;;;;24.21;53.19;94963.38;4933284;29;20037;-83
2023/07/21 03:08:56;;;;;;;11.93;4.88;;;;;;;24.51;53.47;95026.53;4950891;29;20050;-83
2023/07/21 03:11:22;;;;;;;8.25;5.35;;;;;;;24.32;53.29;95002.25;4950376;28;20050;-83
2023/07/21 03:13:47;;;;;;;9.82;5.00;;;;;;;24.66;53.33;95049.22;4933903;28;20035;-83
2023/07/21 03:16:13;;;;;;;11.77;4.80;;;;;;;24.33;53.66;94995.69;4933744;28;20522;-83
2023/07/21 03:18:39;;;;;;;13.25;5.13;;;;;;;24.45;53.53;95021.81;4933755;28;20031;-83
2023/07/21 03:21:05;;;;;;;9.07;4.78;;;;;;;24.72;53.47;95061.31;4950447;28;20066;-83
2023/07/21 03:23:30;;;;;;;11.57;5.10;;;;;;;24.38;53.58;95019.00;4933784;28;20033;-83
2023/07/21 03:25:56;;;;;;;15.30;5.38;;;;;;;24.72;53.87;95071.41;4965565;28;20031;-83
2023/07/21 03:28:22;;;;;;;9.93;5.25;;;;;;;24.49;53.67;95053.22;4950831;29;20028;-83
2023/07/21 03:31:00;;;;;;;12.27;5.65;;;;;;;24.46;53.59;95039.63;4950156;28;20069;-84
2023/07/21 03:33:26;;;;;;;9.25;5.00;;;;;;;24.55;53.75;95073.47;4933380;29;20039;-83
2023/07/21 03:35:58;;;;;;;19.95;5.40;;;;;;;24.70;53.79;95077.19;4950568;29;20575;-83
2023/07/21 03:38:23;;;;;;;16.00;5.43;;;;;;;24.42;53.95;95036.06;4933285;28;20066;-83
2023/07/21 03:40:58;;;;;;;16.48;5.75;;;;;;;24.47;53.83;95050.13;4949913;28;20070;-83
2023/07/21 03:43:23;;;;;;;12.02;6.00;;;;;;;24.51;53.96;95059.06;4929233;28;20023;-83
2023/07/21 03:46:04;;;;;;;11.27;5.72;;;;;;;24.71;53.54;95081.47;4936736;29;20529;-83
2023/07/21 03:48:30;;;;;;;13.70;6.73;;;;;;;24.70;53.64;95082.59;4950828;29;20036;-83
2023/07/21 03:50:57;;;;;;;12.85;5.53;;;;;;;24.27;53.54;95021.53;4940697;29;20062;-83
2023/07/21 03:53:23;;;;;;;11.95;6.20;;;;;;;24.80;53.54;95086.59;4941773;28;20043;-83
2023/07/21 03:55:49;;;;;;;17.90;5.88;;;;;;;24.69;53.49;95074.81;4950438;29;20505;-83
2023/07/21 03:58:15;;;;;;;10.95;5.68;;;;;;;24.25;53.45;95014.94;4950374;29;20077;-83
2023/07/21 04:00:42;;;;;;;10.65;6.43;;;;;;;24.46;53.53;95058.59;4933096;29;20531;-83
2023/07/21 04:03:08;;;;;;;16.80;5.93;;;;;;;24.70;53.81;95111.66;4964415;28;20042;-83
2023/07/21 04:05:34;;;;;;;11.00;6.53;;;;;;;24.36;54.02;95054.59;4964613;28;20035;-83
2023/07/21 04:07:59;;;;;;;17.20;6.40;;;;;;;24.55;53.97;95110.66;4932855;28;20062;-83
2023/07/21 04:10:25;;;;;;;12.35;6.03;;;;;;;24.57;53.93;95125.38;4950155;28;20118;-83
2023/07/21 04:12:50;;;;;;;13.80;6.70;;;;;;;24.47;53.76;95095.41;4949586;28;20126;-83
2023/07/21 04:15:15;;;;;;;16.17;7.03;;;;;;;24.61;53.72;95118.09;4932727;28;20478;-83
2023/07/21 04:17:41;;;;;;;16.40;6.85;;;;;;;24.45;53.31;95084.94;4932680;28;20047;-83
2023/07/21 04:20:09;;;;;;;23.05;6.75;;;;;;;24.15;53.93;95065.06;4932881;29;20062;-83
2023/07/21 04:22:36;;;;;;;11.70;6.93;;;;;;;24.60;53.71;95115.75;4948270;28;20489;-83
2023/07/21 04:25:02;;;;;;;23.45;6.53;;;;;;;24.56;53.69;95107.53;4948939;28;20120;-83
2023/07/21 04:27:28;;;;;;;19.85;7.25;;;;;;;24.54;53.44;95109.88;4949694;29;20062;-83
2023/07/21 04:29:54;;;;;;;13.32;6.53;;;;;;;23.99;54.62;95083.34;4964757;28;20537;-83
2023/07/21 04:32:20;;;;;;;21.85;7.63;;;;;;;24.45;54.16;95119.38;4932709;28;20495;-83
2023/07/21 04:34:46;;;;;;;16.45;6.65;;;;;;;24.43;53.95;95110.81;4936896;28;20047;-83
2023/07/21 04:37:12;;;;;;;16.27;7.05;;;;;;;24.41;54.15;95102.28;4925511;29;20097;-82
2023/07/21 04:39:38;;;;;;;15.70;7.45;;;;;;;23.95;54.20;95039.19;4931936;28;20047;-82
2023/07/21 04:42:04;;;;;;;13.30;7.03;;;;;;;24.36;54.09;95078.19;4949699;29;20378;-82
2023/07/21 04:44:29;;;;;;;18.83;6.65;;;;;;;24.56;53.77;95102.13;4949196;29;20047;-82
2023/07/21 04:46:55;;;;;;;13.43;7.55;;;;;;;24.57;53.88;95092.06;4948865;29;20035;-82
2023/07/21 04:49:20;;;;;;;21.67;7.15;;;;;;;24.16;53.67;95031.41;4931498;28;20039;-82
2023/07/21 04:51:46;;;;;;;10.88;6.97;;;;;;;24.14;53.99;95028.25;4949476;29;20039;-82
2023/07/21 04:54:11;;;;;;;15.13;7.15;;;;;;;24.53;53.98;95074.97;4948769;29;20043;-82
2023/07/21 04:56:38;;;;;;;16.08;6.70;;;;;;;24.05;53.51;94997.94;4947723;28;20037;-82
2023/07/21 04:59:03;;;;;;;13.57;6.53;;;;;;;24.59;53.23;95082.44;4957233;28;20101;-83
2023/07/21 05:01:31;;;;;;;13.77;6.53;;;;;;;24.79;53.46;95118.38;4946116;28;20043;-82
2023/07/21 05:03:57;;;;;;;13.70;6.82;;;;;;;24.76;53.49;95105.53;4963552;28;20050;-82
2023/07/21 05:06:23;;;;;;;18.77;7.22;;;;;;;24.57;53.96;95094.78;4969740;28;20043;-83
2023/07/21 05:08:49;;;;;;;16.27;7.43;;;;;;;24.79;53.94;95123.81;4993918;28;20440;-82
2023/07/21 05:11:15;;;;;;;14.15;7.28;;;;;;;24.86;53.95;95120.41;4950087;29;20043;-82
2023/07/21 05:13:40;;;;;;;13.63;7.47;;;;;;;24.32;53.99;95037.50;4950611;29;20027;-82
2023/07/21 05:16:06;;;;;;;17.65;8.48;;;;;;;24.74;54.07;95109.75;4951417;28;20042;-81
2023/07/21 05:18:31;;;;;;;14.68;7.28;;;;;;;24.66;54.10;95099.94;4950602;28;20078;-82
2023/07/21 05:20:56;;;;;;;20.08;7.88;;;;;;;24.67;54.07;95104.22;4950616;29;20140;-82
2023/07/21 05:23:22;;;;;;;20.02;8.40;;;;;;;24.96;53.93;95126.00;4966208;28;20035;-82
2023/07/21 05:25:47;;;;;;;17.60;7.63;;;;;;;24.13;55.06;95070.03;4951467;29;20031;-82
2023/07/21 05:28:13;;;;;;;16.00;7.30;;;;;;;24.65;54.33;95120.06;4951608;28;20027;-82
2023/07/21 05:30:42;;;;;;;14.45;8.38;;;;;;;24.78;54.39;95132.31;4932789;28;20106;-82
2023/07/21 05:33:08;;;;;;;12.40;7.20;;;;;;;24.62;53.98;95086.34;4949258;29;20406;-82
2023/07/21 05:35:33;;;;;;;12.70;7.25;;;;;;;24.39;53.79;95032.19;4981639;28;20025;-82
2023/07/21 05:37:59;;;;;;;18.27;7.35;;;;;;;24.65;54.31;95090.25;4991130;28;20483;-82
2023/07/21 05:40:24;;;;;;;23.10;8.88;;;;;;;24.66;54.38;95119.72;4941987;28;20043;-82
2023/07/21 05:42:50;;;;;;;22.85;8.55;;;;;;;24.96;53.96;95127.94;4942898;28;20031;-82
2023/07/21 05:45:16;;;;;;;19.58;9.00;;;;;;;24.90;54.15;95100.34;4954554;28;20042;-81
2023/07/21 05:47:41;;;;;;;19.23;8.98;;;;;;;24.90;54.65;95103.06;4938154;28;20067;-81
2023/07/21 05:50:08;;;;;;;28.73;9.70;;;;;;;24.90;54.53;95099.53;5043053;28;20040;-80
2023/07/21 05:52:33;;;;;;;29.65;9.93;;;;;;;25.03;54.69;95114.47;4938653;28;20027;-81
2023/07/21 05:55:00;;;;;;;18.85;9.70;;;;;;;24.90;54.21;95089.50;4969202;28;20046;-80
2023/07/21 05:57:27;;;;;;;21.17;9.48;;;;;;;25.27;54.04;95143.09;4937992;28;20019;-80
2023/07/21 05:59:52;;;;;;;22.70;8.43;;;;;;;24.86;53.83;95063.44;4955200;29;20062;-81
2023/07/21 06:02:18;;;;;;;23.58;9.45;;;;;;;24.85;53.72;95070.03;4937297;28;20031;-81
2023/07/21 06:04:43;;;;;;;27.23;9.43;;;;;;;25.32;53.60;95123.78;4954035;28;20126;-80
2023/07/21 06:07:09;;;;;;;18.08;8.90;;;;;;;25.20;53.75;95100.34;4935247;28;20147;-81
2023/07/21 06:09:34;;;;;;;17.88;8.77;;;;;;;25.25;53.76;95127.16;4971792;28;20055;-79
2023/07/21 06:12:00;;;;;;;24.25;8.93;;;;;;;24.86;53.71;95055.31;4952748;28;20038;-79
2023/07/21 06:14:25;;;;;;;25.65;8.07;;;;;;;25.21;53.98;95139.13;4935217;28;20036;-79
2023/07/21 06:16:50;;;;;;;20.17;8.18;;;;;;;25.16;54.32;95139.47;4965152;28;20069;-79
2023/07/21 06:19:16;;;;;;;24.80;9.48;;;;;;;24.63;53.73;95022.84;4958227;28;20027;-79
2023/07/21 06:21:42;;;;;;;16.48;8.65;;;;;;;25.36;53.34;95132.75;4989514;28;20041;-79
2023/07/21 06:24:08;;;;;;;24.98;8.70;;;;;;;25.30;53.68;95113.28;4963830;28;20039;-79
2023/07/21 06:26:35;;;;;;;14.30;8.52;;;;;;;25.07;53.57;95071.91;4939237;28;20033;-79
2023/07/21 06:29:00;;;;;;;18.08;7.88;;;;;;;25.45;53.36;95103.38;4917089;29;20102;-79
2023/07/21 06:31:26;;;;;;;17.30;8.82;;;;;;;25.58;53.18;95120.22;4952692;29;20039;-79
2023/07/21 06:33:51;;;;;;;16.85;8.40;;;;;;;25.54;53.21;95094.97;4934866;29;20042;-79
2023/07/21 06:36:17;;;;;;;17.48;7.57;;;;;;;25.59;53.16;95087.28;4963109;28;20106;-79
2023/07/21 06:38:43;;;;;;;17.15;7.15;;;;;;;25.51;52.52;95077.47;4934125;28;20034;-79
2023/07/21 06:41:09;;;;;;;15.52;8.32;;;;;;;25.63;52.67;95079.94;4935373;28;20035;-79
2023/07/21 06:43:34;;;;;;;18.02;7.68;;;;;;;25.79;52.29;95097.97;4988551;28;20037;-79
2023/07/21 06:45:59;;;;;;;20.67;7.75;;;;;;;25.83;52.16;95101.50;4951950;28;20508;-79
2023/07/21 06:48:25;;;;;;;19.17;7.30;;;;;;;25.72;52.19;95088.59;4933949;28;20364;-79
2023/07/21 06:50:50;;;;;;;18.95;7.43;;;;;;;25.64;52.24;95072.59;4935096;28;20035;-79
2023/07/21 06:53:19;;;;;;;22.50;7.97;;;;;;;25.55;52.38;95040.28;4936321;28;20041;-79
2023/07/21 06:55:48;;;;;;;26.90;9.65;;;;;;;26.00;52.63;95119.94;4952388;28;20334;-79
2023/07/21 06:58:13;;;;;;;25.90;8.18;;;;;;;25.65;52.28;95060.56;4940114;28;20460;-79
2023/07/21 07:00:39;;;;;;;19.88;8.20;;;;;;;26.10;51.93;95109.16;4952592;28;20039;-79
2023/07/21 07:03:04;;;;;;;21.42;8.18;;;;;;;26.06;51.97;95102.13;4935298;28;20109;-79
2023/07/21 07:05:30;;;;;;;19.05;7.88;;;;;;;25.82;51.47;95053.75;4934942;28;20038;-79
2023/07/21 07:07:56;;;;;;;24.90;8.07;;;;;;;26.01;51.55;95076.09;4951709;29;20102;-79
2023/07/21 07:10:21;;;;;;;17.42;9.27;;;;;;;26.34;51.51;95112.50;4952082;28;20118;-79
2023/07/21 07:12:47;;;;;;;18.08;8.82;;;;;;;26.29;51.47;95091.09;4940577;28;20105;-79
2023/07/21 07:15:12;;;;;;;13.82;7.68;;;;;;;26.38;51.03;95097.78;4935890;29;20142;-79
2023/07/21 07:17:38;;;;;;;16.13;8.48;;;;;;;26.35;51.14;95103.19;4951963;29;20028;-79
2023/07/21 07:20:04;;;;;;;20.48;8.23;;;;;;;26.35;50.82;95086.88;4963669;28;20494;-80
2023/07/21 07:22:30;;;;;;;27.65;9.05;;;;;;;26.19;51.09;95078.94;4929220;29;20122;-80
2023/07/21 07:24:55;;;;;;;19.05;7.40;;;;;;;26.27;51.22;95101.56;4950691;28;20035;-80
2023/07/21 07:27:21;;;;;;;13.80;7.63;;;;;;;26.29;50.77;95077.50;4933523;28;20027;-80
2023/07/21 07:29:47;;;;;;;17.92;7.50;;;;;;;26.52;50.95;95100.63;4932690;28;20035;-80
2023/07/21 07:32:13;;;;;;;18.13;8.00;;;;;;;26.34;50.82;95082.59;4933196;28;20039;-80
2023/07/21 07:34:41;;;;;;;24.33;8.88;;;;;;;26.64;50.26;95107.69;4950983;29;20519;-80
2023/07/21 07:37:06;;;;;;;18.33;7.50;;;;;;;26.40;49.88;95059.34;4950251;29;20041;-80
2023/07/21 07:39:32;;;;;;;24.60;7.57;;;;;;;26.61;50.16;95104.97;4932688;28;20028;-80
2023/07/21 07:41:57;;;;;;;29.35;7.53;;;;;;;24.96;50.20;94852.00;4949708;29;20055;-80
2023/07/21 07:44:23;;;;;;;27.48;8.07;;;;;;;26.55;50.42;95090.91;4949403;28;20035;-80
2023/07/21 07:46:48;;;;;;;24.92;8.70;;;;;;;26.27;50.62;95068.94;4947624;29;20044;-81
2023/07/21 07:49:14;;;;;;;20.48;7.97;;;;;;;26.42;50.56;95068.69;4924270;28;20105;-80
2023/07/21 07:51:39;;;;;;;16.48;6.75;;;;;;;26.47;50.05;95089.31;4933914;28;20031;-80
2023/07/21 07:54:05;;;;;;;17.92;6.82;;;;;;;26.61;49.89;95078.53;4945040;29;20338;-80
2023/07/21 07:56:31;;;;;;;18.35;7.57;;;;;;;26.44;50.15;95047.34;4932789;28;20028;-80
2023/07/21 07:58:57;;;;;;;15.98;6.80;;;;;;;26.78;49.93;95087.97;4949408;29;20065;-80
2023/07/21 08:01:23;;;;;;;14.10;7.00;;;;;;;26.92;49.50;95079.16;4965073;28;20031;-81
2023/07/21 08:03:49;;;;;;;24.23;7.75;;;;;;;26.72;48.40;95056.84;4949678;28;20043;-80
2023/07/21 08:06:15;;;;;;;20.88;7.05;;;;;;;27.12;47.63;95085.88;4932347;29;20027;-80
2023/07/21 08:08:42;;;;;;;12.43;6.32;;;;;;;26.88;46.85;95062.78;4932518;28;20051;-81
2023/07/21 08:11:08;;;;;;;12.13;6.38;;;;;;;26.96;46.94;95083.44;4932603;28;20619;-79
2023/07/21 08:13:34;;;;;;;26.27;7.43;;;;;;;27.15;47.06;95096.00;4934770;29;20036;-80
2023/07/21 08:16:00;;;;;;;13.98;6.50;;;;;;;27.05;46.88;95074.94;4949783;29;20520;-80
2023/07/21 08:18:25;;;;;;;18.00;6.82;;;;;;;27.23;46.71;95103.84;4964394;28;20130;-80
2023/07/21 08:20:51;;;;;;;18.58;7.07;;;;;;;27.24;46.38;95101.88;4932378;29;20065;-80
2023/07/21 08:23:16;;;;;;;19.98;6.57;;;;;;;27.05;46.28;95073.00;4949791;29;20455;-81
2023/07/21 08:25:42;;;;;;;11.85;6.07;;;;;;;27.05;45.73;95064.06;4949687;29;20123;-81
2023/07/21 08:28:08;;;;;;;18.40;6.22;;;;;;;27.34;45.96;95087.53;4944862;29;20024;-81
2023/07/21 08:30:35;;;;;;;19.58;6.22;;;;;;;27.46;45.86;95091.88;4962481;28;20027;-81
2023/07/21 08:33:01;;;;;;;16.35;6.05;;;;;;;27.44;45.00;95099.63;4943273;28;20040;-80
2023/07/21 08:35:27;;;;;;;15.63;6.43;;;;;;;27.19;44.51;95062.19;5004843;28;20031;-80
2023/07/21 08:37:54;;;;;;;15.55;6.15;;;;;;;27.40;43.95;95072.38;4932545;29;20043;-81
2023/07/21 08:40:22;;;;;;;12.30;5.25;;;;;;;27.63;42.83;95093.88;4916257;28;20031;-80
2023/07/21 08:42:49;;;;;;;11.90;5.03;;;;;;;27.75;42.71;95095.50;4932051;28;20042;-81
2023/07/21 08:45:15;;;;;;;13.65;5.03;;;;;;;27.77;43.00;95074.09;4990239;28;20512;-81
2023/07/21 08:47:41;;;;;;;15.13;5.20;;;;;;;27.88;42.53;95091.25;4949684;29;20089;-81
2023/07/21 08:50:07;;;;;;;14.13;4.85;;;;;;;27.77;42.30;95065.94;4944069;28;20040;-81
2023/07/21 08:52:33;;;;;;;14.15;5.07;;;;;;;27.84;42.43;95068.66;4935028;28;20036;-81
2023/07/21 08:55:00;;;;;;;14.85;5.50;;;;;;;27.92;42.77;95071.00;4940901;29;20096;-81
2023/07/21 08:57:27;;;;;;;18.02;5.40;;;;;;;28.04;41.69;95080.75;4933828;28;20471;-81
2023/07/21 08:59:56;;;;;;;13.90;5.00;;;;;;;27.77;41.58;95031.25;4931806;29;20115;-81
2023/07/21 09:02:41;;;;;;;12.85;5.10;;;;;;;28.15;41.43;95095.19;4991759;28;20561;-81
2023/07/21 09:05:07;;;;;;;15.80;5.03;;;;;;;28.24;43.29;95086.66;4947502;29;20462;-81
2023/07/21 09:07:35;;;;;;;10.23;4.43;;;;;;;28.19;43.48;95067.97;4945865;28;20069;-80
2023/07/21 09:10:00;;;;;;;13.52;5.35;;;;;;;28.21;42.02;95071.06;4959702;28;20062;-80
2023/07/21 09:12:35;;;;;;;13.32;4.63;;;;;;;28.29;40.78;95054.34;4947590;28;20506;-81
2023/07/21 09:15:07;;;;;;;15.25;5.15;;;;;;;28.49;41.15;95079.25;4930850;28;20416;-81
2023/07/21 09:17:33;;;;;;;14.60;4.72;;;;;;;28.39;42.30;95060.94;4974127;28;20063;-81
2023/07/21 09:19:58;;;;;;;13.90;5.00;;;;;;;28.35;42.14;95039.13;4937273;29;20105;-81
2023/07/21 09:22:24;;;;;;;11.57;5.13;;;;;;;28.57;40.73;95050.81;4947869;29;20043;-81
2023/07/21 09:24:51;;;;;;;11.32;5.50;;;;;;;28.74;40.16;95065.59;4949089;29;20034;-80
2023/07/21 09:27:18;;;;;;;15.02;5.60;;;;;;;28.77;40.54;95056.63;4963850;28;20031;-80
2023/07/21 09:29:44;;;;;;;11.23;5.32;;;;;;;28.73;41.27;95031.28;4930462;29;20424;-81
2023/07/21 09:32:14;;;;;;;9.43;4.60;;;;;;;29.05;41.48;95069.47;4943617;28;20479;-81
2023/07/21 09:34:58;;;;;;;12.60;5.00;;;;;;;29.12;41.89;95064.75;5027395;28;20061;-81
2023/07/21 09:37:28;;;;;;;10.73;4.82;;;;;;;29.09;41.52;95068.28;4931498;28;20027;-80
2023/07/21 09:39:57;;;;;;;13.23;5.38;;;;;;;29.03;40.97;95064.41;4948353;29;20373;-80
2023/07/21 09:42:24;;;;;;;14.02;5.70;;;;;;;29.09;41.38;95062.03;4949691;28;20031;-81
2023/07/21 09:44:51;;;;;;;10.35;4.50;;;;;;;28.85;41.77;95000.09;4939397;28;20035;-81
2023/07/21 09:47:17;;;;;;;10.00;4.75;;;;;;;28.98;40.96;95004.75;4931336;29;20027;-81
2023/07/21 09:49:48;;;;;;;14.18;5.35;;;;;;;29.30;41.46;95048.28;4963029;28;20035;-81
2023/07/21 09:52:15;;;;;;;12.95;4.72;;;;;;;29.81;40.94;95063.31;4948147;28;20114;-80
2023/07/21 09:54:44;;;;;;;9.32;5.40;;;;;;;30.56;38.51;95052.66;4931780;29;20043;-81
2023/07/21 09:57:18;;;;;;;15.27;5.15;;;;;;;31.50;37.52;95035.63;4941235;29;20039;-81
2023/07/21 09:59:47;;;;;;;15.00;5.35;;;;;;;32.04;36.52;94964.38;4963780;28;20068;-80
2023/07/21 10:02:13;;;;;;;11.93;4.95;;;;;;;33.04;33.79;95023.81;4946456;28;20042;-81
2023/07/21 10:04:39;;;;;;;10.75;4.75;;;;;;;32.61;33.86;95041.06;4937595;28;20486;-81
2023/07/21 10:07:06;;;;;;;9.77;4.22;;;;;;;33.94;32.72;95032.63;4932680;28;20028;-81
2023/07/21 10:09:33;;;;;;;11.00;4.75;;;;;;;34.64;31.34;95056.91;4948362;28;20053;-81
2023/07/21 10:12:08;;;;;;;8.73;4.43;;;;;;;35.66;30.69;95034.09;4959136;28;20038;-81
2023/07/21 10:14:37;;;;;;;10.02;4.32;;;;;;;36.18;29.62;95002.56;4962097;28;20075;-79
2023/07/21 10:17:03;;;;;;;13.57;3.95;;;;;;;37.10;27.39;95043.72;4946835;29;20108;-81
2023/07/21 10:19:29;;;;;;;12.60;5.25;;;;;;;37.65;27.27;95041.41;4930208;28;20573;-80
2023/07/21 10:21:55;;;;;;;10.05;4.30;;;;;;;37.83;27.28;95005.53;4931296;28;20181;-80
2023/07/21 10:24:32;;;;;;;12.30;5.15;;;;;;;38.33;26.05;95004.34;4932653;28;20031;-81
2023/07/21 10:27:02;;;;;;;15.15;5.07;;;;;;;38.53;25.74;95020.56;4931343;29;20039;-79
2023/07/21 10:29:28;;;;;;;17.60;5.38;;;;;;;39.05;24.75;95027.16;4931612;29;20064;-80
2023/07/21 10:31:55;;;;;;;17.90;5.10;;;;;;;39.48;24.06;95037.91;4930948;28;20035;-80
2023/07/21 10:34:44;;;;;;;11.95;4.60;;;;;;;39.50;24.67;95010.50;4948507;29;20035;-80
2023/07/21 10:37:10;;;;;;;12.60;4.40;;;;;;;39.69;24.30;95011.19;4948605;29;20070;-80
2023/07/21 10:39:38;;;;;;;11.82;5.07;;;;;;;39.84;24.76;95017.66;4949812;29;20279;-80
2023/07/21 10:42:06;;;;;;;11.13;4.95;;;;;;;40.08;25.25;95003.84;4932039;28;20413;-79
2023/07/21 10:44:43;;;;;;;15.10;4.80;;;;;;;40.22;23.67;95017.03;4964388;28;20031;-80
2023/07/21 10:47:14;;;;;;;23.48;5.13;;;;;;;40.34;23.28;95026.44;4932550;28;20391;-80
2023/07/21 10:49:40;;;;;;;11.82;5.22;;;;;;;40.36;23.49;95016.38;4934073;29;20063;-80
2023/07/21 10:52:05;;;;;;;747.92;71.63;;;;;;;40.36;24.05;95018.41;4948492;29;20094;-82
2023/07/21 10:54:31;;;;;;;14.10;4.57;;;;;;;40.03;23.94;94999.72;4943936;29;20038;-86
2023/07/21 10:56:58;;;;;;;17.85;5.47;;;;;;;40.01;23.49;95023.63;4941433;29;20031;-86
2023/07/21 10:59:24;;;;;;;22.60;5.70;;;;;;;39.69;24.30;94987.00;4956868;29;20544;-86
2023/07/21 11:01:53;;;;;;;23.83;5.03;;;;;;;39.45;24.13;94971.47;4955842;29;20102;-85
2023/07/21 11:04:20;;;;;;;18.55;4.78;;;;;;;39.58;23.87;95013.72;4936409;29;20029;-84
2023/07/21 11:06:53;;;;;;;11.38;5.03;;;;;;;39.06;23.95;95000.97;4936075;28;20054;-84
2023/07/21 11:09:21;;;;;;;10.18;4.82;;;;;;;39.41;23.98;95006.94;4952601;29;20449;-84
2023/07/21 11:11:57;;;;;;;14.45;5.18;;;;;;;39.30;23.87;95004.63;4936200;28;20047;-85
2023/07/21 11:14:25;;;;;;;18.40;4.72;;;;;;;39.39;23.70;94976.13;4949830;29;20028;-84
2023/07/21 11:16:59;;;;;;;18.48;5.10;;;;;;;39.50;23.43;94968.09;4923448;29;20111;-84
2023/07/21 11:19:30;;;;;;;19.48;4.88;;;;;;;39.73;23.35;95003.50;4936776;29;20037;-84
2023/07/21 11:21:55;;;;;;;;;;;;;;;39.60;24.05;94995.34;4936974;28;20031;-84
2023/07/21 11:24:31;;;;;;;17.55;4.68;;;;;;;39.86;23.61;94981.09;4936719;29;19940;-85
2023/07/21 11:27:05;;;;;;;13.60;4.70;;;;;;;39.78;23.47;94997.28;4936259;28;20039;-85
2023/07/21 11:29:31;;;;;;;12.00;4.88;;;;;;;39.95;23.82;94987.41;4936630;29;20130;-85
2023/07/21 11:31:57;;;;;;;13.77;5.35;;;;;;;39.84;23.62;94969.69;4936187;29;20244;-84